Time;durP1;ratioP1;P1;durP2;ratioP2;P2;SDS_P1;SDS_P2;PMS_P1;PMS_P2;Temp;Humidity;BMP_temperature;BMP_pressure;BME280_temperature;BME280_humidity;BME280_pressure;Samples;Min_cycle;Max_cycle;Signal;HPM_P1;HPM_P2
2023/10/16 00:16:58;;;;;;;8.40;3.13;;;18.50;92.70;;;;;;4565470;19;20031;-71
2023/10/16 00:18:37;;;;;;;7.18;2.60;;;18.50;92.70;;;;;;4596339;19;20324;-71
2023/10/16 00:20:14;;;;;;;6.60;2.90;;;18.50;92.60;;;;;;4596785;19;20006;-71
2023/10/16 00:21:52;;;;;;;8.35;3.60;;;18.50;92.60;;;;;;4596676;19;20446;-71
2023/10/16 00:23:30;;;;;;;6.78;2.63;;;18.50;92.70;;;;;;4595379;19;20489;-71
2023/10/16 00:25:06;;;;;;;6.47;3.20;;;18.50;92.70;;;;;;4596192;19;20002;-71
2023/10/16 00:26:45;;;;;;;6.38;2.67;;;18.50;92.70;;;;;;4594410;19;20017;-71
2023/10/16 00:28:22;;;;;;;5.82;2.60;;;18.50;92.70;;;;;;4596000;19;20014;-71
2023/10/16 00:29:56;;;;;;;5.00;2.28;;;18.50;92.70;;;;;;4596237;19;20001;-71
2023/10/16 00:31:32;;;;;;;5.10;2.20;;;18.50;92.70;;;;;;4596177;19;20503;-71
2023/10/16 00:33:16;;;;;;;5.43;2.25;;;18.50;92.70;;;;;;4596259;19;20050;-71
2023/10/16 00:34:52;;;;;;;5.20;2.00;;;18.50;92.80;;;;;;4596429;19;20021;-71
2023/10/16 00:36:26;;;;;;;6.32;2.45;;;18.50;92.80;;;;;;4596226;19;20432;-71
2023/10/16 00:38:03;;;;;;;5.45;2.30;;;18.50;92.80;;;;;;4595003;19;20014;-71
2023/10/16 00:39:38;;;;;;;6.30;2.38;;;18.50;92.90;;;;;;4595782;19;20006;-71
2023/10/16 00:41:21;;;;;;;6.47;2.97;;;18.50;92.80;;;;;;4595955;19;20324;-70
2023/10/16 00:42:56;;;;;;;6.50;1.95;;;18.50;92.80;;;;;;4596074;19;20293;-71
2023/10/16 00:44:38;;;;;;;5.85;1.92;;;18.50;92.80;;;;;;4595882;19;20311;-71
2023/10/16 00:46:30;;;;;;;4.03;1.77;;;18.40;92.80;;;;;;4594577;19;20070;-71
2023/10/16 00:48:06;;;;;;;5.65;2.47;;;18.50;92.90;;;;;;4595957;19;20014;-71
2023/10/16 00:49:47;;;;;;;5.60;2.55;;;18.50;92.90;;;;;;4594488;19;20366;-71
2023/10/16 00:51:23;;;;;;;4.93;1.88;;;18.40;92.80;;;;;;4594770;19;20029;-71
2023/10/16 00:52:58;;;;;;;4.20;1.90;;;18.50;92.90;;;;;;4594742;19;20003;-71
2023/10/16 00:54:42;;;;;;;5.53;1.83;;;18.50;92.80;;;;;;4594393;19;20021;-71
2023/10/16 00:56:18;;;;;;;7.32;2.95;;;18.50;93.00;;;;;;4595779;19;20007;-71
2023/10/16 00:57:55;;;;;;;5.13;2.35;;;18.50;93.00;;;;;;4594195;19;20034;-71
2023/10/16 00:59:29;;;;;;;4.22;1.80;;;18.40;92.90;;;;;;4594217;19;20006;-71
2023/10/16 01:01:12;;;;;;;4.90;1.33;;;18.50;92.90;;;;;;4595233;19;20003;-71
2023/10/16 01:02:47;;;;;;;6.18;2.25;;;18.50;93.00;;;;;;4595902;19;20022;-71
2023/10/16 01:04:21;;;;;;;5.45;2.10;;;18.40;93.00;;;;;;4595745;19;19999;-71
2023/10/16 01:05:55;;;;;;;6.18;1.58;;;18.50;92.90;;;;;;4594485;19;20311;-71
2023/10/16 01:07:36;;;;;;;5.32;1.77;;;18.40;92.90;;;;;;4593057;19;20341;-71
2023/10/16 01:09:22;;;;;;;4.78;1.42;;;18.50;93.00;;;;;;4595071;19;20010;-71
2023/10/16 01:10:58;;;;;;;4.95;1.98;;;18.50;93.00;;;;;;4594063;19;20310;-71
2023/10/16 01:12:36;;;;;;;5.75;1.73;;;18.50;93.00;;;;;;4594328;19;20014;-71
2023/10/16 01:14:12;;;;;;;4.47;1.50;;;18.50;93.00;;;;;;4593516;19;20055;-71
2023/10/16 01:15:51;;;;;;;5.38;2.58;;;18.50;93.00;;;;;;4595041;19;20002;-71
2023/10/16 01:17:32;;;;;;;5.70;2.10;;;18.50;93.00;;;;;;4593802;19;20022;-71
2023/10/16 01:19:06;;;;;;;5.03;2.50;;;18.50;93.10;;;;;;4595300;19;20006;-71
2023/10/16 01:20:47;;;;;;;4.57;1.90;;;18.40;93.10;;;;;;4594080;19;20062;-71
2023/10/16 01:22:22;;;;;;;;;;;18.50;93.20;;;;;;4596148;19;20023;-71
2023/10/16 01:24:02;;;;;;;5.20;1.98;;;18.50;93.30;;;;;;4595048;19;19915;-71
2023/10/16 01:25:37;;;;;;;4.20;2.03;;;18.50;93.30;;;;;;4593140;19;20006;-71
2023/10/16 01:27:32;;;;;;;5.25;2.35;;;18.40;93.20;;;;;;4593050;19;20014;-71
2023/10/16 01:29:07;;;;;;;6.85;1.95;;;18.40;93.20;;;;;;4593740;19;20073;-71
2023/10/16 01:30:41;;;;;;;5.07;2.13;;;18.40;93.20;;;;;;4594871;19;20030;-71
2023/10/16 01:32:16;;;;;;;4.45;1.83;;;18.40;93.30;;;;;;4595029;19;20007;-71
2023/10/16 01:33:54;;;;;;;6.13;1.83;;;18.40;93.40;;;;;;4595169;19;20009;-71
2023/10/16 01:35:29;;;;;;;5.25;2.20;;;18.40;93.30;;;;;;4594777;19;20029;-71
2023/10/16 01:37:08;;;;;;;4.95;1.95;;;18.40;93.30;;;;;;4594390;19;20011;-71
2023/10/16 01:38:44;;;;;;;5.45;1.73;;;18.30;93.40;;;;;;4594867;19;20006;-71
2023/10/16 01:40:25;;;;;;;5.28;1.95;;;18.40;93.40;;;;;;4595045;19;20445;-71
2023/10/16 01:42:11;;;;;;;4.63;1.80;;;18.40;93.40;;;;;;4594862;19;20028;-71
2023/10/16 01:43:46;;;;;;;3.83;1.60;;;18.40;93.50;;;;;;4593718;19;20526;-71
2023/10/16 01:45:26;;;;;;;4.72;2.00;;;18.40;93.60;;;;;;4593934;19;20080;-71
2023/10/16 01:47:06;;;;;;;4.85;1.75;;;18.40;93.60;;;;;;4594252;19;20084;-71
2023/10/16 01:48:49;;;;;;;4.20;2.03;;;18.40;93.60;;;;;;4593284;19;20011;-71
2023/10/16 01:50:26;;;;;;;5.22;1.73;;;18.40;93.60;;;;;;4593315;19;20017;-71
2023/10/16 01:52:05;;;;;;;5.15;1.63;;;18.40;93.60;;;;;;4593530;19;20029;-71
2023/10/16 01:53:43;;;;;;;5.75;2.45;;;18.40;93.60;;;;;;4594160;19;20010;-71
2023/10/16 01:55:17;;;;;;;3.78;1.50;;;18.40;93.70;;;;;;4594507;19;20011;-71
2023/10/16 01:56:53;;;;;;;3.65;1.48;;;18.40;93.70;;;;;;4593914;19;20010;-71
2023/10/16 01:58:30;;;;;;;4.40;1.60;;;18.40;93.80;;;;;;4593381;19;20362;-71
2023/10/16 02:00:06;;;;;;;4.03;1.73;;;18.40;93.60;;;;;;4594433;19;20025;-71
2023/10/16 02:01:42;;;;;;;9.27;2.97;;;18.40;93.70;;;;;;4594466;19;20074;-71
2023/10/16 02:03:17;;;;;;;3.55;1.60;;;18.40;93.90;;;;;;4594552;19;20013;-71
2023/10/16 02:04:51;;;;;;;3.25;1.52;;;18.40;93.80;;;;;;4594560;19;19998;-71
2023/10/16 02:06:26;;;;;;;6.20;2.00;;;18.40;93.80;;;;;;4592896;19;20006;-71
2023/10/16 02:08:01;;;;;;;5.38;2.15;;;18.40;93.80;;;;;;4592632;19;20017;-71
2023/10/16 02:09:38;;;;;;;5.43;1.83;;;18.40;93.80;;;;;;4593829;19;20010;-71
2023/10/16 02:11:13;;;;;;;3.67;1.50;;;18.40;93.80;;;;;;4592868;19;20010;-71
2023/10/16 02:12:48;;;;;;;4.63;1.40;;;18.40;93.90;;;;;;4593868;19;20006;-71
2023/10/16 02:14:21;;;;;;;4.32;1.63;;;18.40;93.90;;;;;;4594073;19;19999;-71
2023/10/16 02:15:57;;;;;;;6.70;2.33;;;18.40;93.90;;;;;;4594135;19;20074;-71
2023/10/16 02:17:31;;;;;;;4.20;1.25;;;18.40;94.00;;;;;;4592891;19;20022;-71
2023/10/16 02:19:06;;;;;;;4.88;1.40;;;18.40;94.00;;;;;;4594290;19;19999;-71
2023/10/16 02:20:45;;;;;;;6.45;2.25;;;18.40;94.00;;;;;;4593988;19;20021;-71
2023/10/16 02:22:23;;;;;;;4.18;1.73;;;18.40;94.00;;;;;;4592568;19;20033;-71
2023/10/16 02:24:03;;;;;;;4.43;1.42;;;18.40;94.00;;;;;;4593380;19;20002;-71
2023/10/16 02:25:39;;;;;;;4.78;1.65;;;18.40;94.00;;;;;;4590535;19;20301;-71
2023/10/16 02:27:13;;;;;;;4.50;1.60;;;18.40;94.00;;;;;;4592928;19;20006;-71
2023/10/16 02:28:47;;;;;;;4.72;1.55;;;18.40;94.00;;;;;;4593739;19;20322;-71
2023/10/16 02:31:57;;;;;;;3.50;1.42;;;18.40;94.00;;;;;;4593745;19;20030;-71
2023/10/16 02:33:35;;;;;;;3.70;1.45;;;18.30;94.00;;;;;;4593914;19;20008;-71
2023/10/16 02:35:15;;;;;;;3.53;1.48;;;18.40;94.00;;;;;;4592481;19;20006;-71
2023/10/16 02:36:54;;;;;;;3.22;1.50;;;18.40;94.00;;;;;;4592890;19;20417;-71
2023/10/16 02:38:30;;;;;;;5.18;1.60;;;18.40;94.00;;;;;;4593654;19;20362;-71
2023/10/16 02:40:10;;;;;;;2.97;1.30;;;18.40;94.00;;;;;;4593562;19;20011;-71
2023/10/16 02:41:44;;;;;;;3.95;1.58;;;18.40;94.00;;;;;;4593820;19;20007;-71
2023/10/16 02:43:20;;;;;;;4.15;1.25;;;18.40;94.00;;;;;;4593494;19;20009;-71
2023/10/16 02:44:56;;;;;;;3.22;1.45;;;18.40;94.00;;;;;;4593799;19;20638;-71
2023/10/16 02:46:31;;;;;;;3.97;1.60;;;18.40;93.90;;;;;;4592210;19;20009;-71
2023/10/16 02:48:09;;;;;;;3.67;1.45;;;18.30;93.90;;;;;;4593661;19;19998;-70
2023/10/16 02:49:49;;;;;;;4.50;1.80;;;18.40;94.00;;;;;;4592103;19;20421;-71
2023/10/16 02:51:24;;;;;;;4.00;1.80;;;18.40;93.90;;;;;;4593054;19;20007;-71
2023/10/16 02:52:58;;;;;;;4.82;1.60;;;18.40;94.00;;;;;;4593553;19;20002;-71
2023/10/16 02:54:35;;;;;;;3.20;1.52;;;18.40;94.00;;;;;;4593315;19;20007;-71
2023/10/16 02:56:09;;;;;;;4.43;1.70;;;18.40;94.00;;;;;;4593197;19;20007;-71
2023/10/16 02:57:43;;;;;;;5.25;1.48;;;18.30;93.90;;;;;;4592101;19;20009;-71
2023/10/16 02:59:19;;;;;;;4.45;1.83;;;18.40;93.90;;;;;;4592136;19;20023;-71
2023/10/16 03:00:56;;;;;;;4.60;1.73;;;18.40;93.90;;;;;;4593068;19;19998;-71
2023/10/16 03:02:31;;;;;;;4.88;1.92;;;18.30;93.90;;;;;;4593417;19;20451;-71
2023/10/16 03:04:08;;;;;;;3.15;1.48;;;18.30;93.90;;;;;;4593357;19;20017;-71
2023/10/16 03:05:44;;;;;;;4.25;1.40;;;18.30;93.80;;;;;;4592587;19;20028;-71
2023/10/16 03:07:24;;;;;;;4.15;1.60;;;18.30;93.90;;;;;;4592324;19;20029;-71
2023/10/16 03:09:15;;;;;;;5.28;2.25;;;18.30;93.90;;;;;;4591963;19;20085;-71
2023/10/16 03:10:53;;;;;;;6.60;1.70;;;18.30;93.90;;;;;;4592910;19;20014;-71
2023/10/16 03:12:27;;;;;;;5.05;1.75;;;18.30;94.00;;;;;;4592881;19;19999;-71
2023/10/16 03:14:09;;;;;;;5.50;2.17;;;18.30;93.90;;;;;;4593268;19;20010;-71
2023/10/16 03:15:48;;;;;;;4.20;2.05;;;18.30;93.90;;;;;;4593207;19;20389;-71
2023/10/16 03:17:34;;;;;;;5.47;2.00;;;18.30;93.90;;;;;;4591814;19;20015;-71
2023/10/16 03:19:10;;;;;;;4.25;1.80;;;18.30;93.90;;;;;;4591698;19;20362;-71
2023/10/16 03:20:48;;;;;;;4.13;1.88;;;18.30;94.00;;;;;;4592388;19;20069;-71
2023/10/16 03:22:23;;;;;;;6.38;2.70;;;18.30;94.20;;;;;;4592966;19;20002;-71
2023/10/16 03:23:58;;;;;;;5.07;1.80;;;18.30;94.00;;;;;;4592714;19;20006;-71
2023/10/16 03:27:52;;;;;;;6.47;2.00;;;18.30;94.00;;;;;;4591944;19;20018;-71
2023/10/16 03:29:19;;;;;;;4.22;1.83;;;18.30;94.00;;;;;;4592149;19;20444;-71
2023/10/16 03:30:53;;;;;;;4.25;1.90;;;18.30;94.00;;;;;;4592523;19;20305;-71
2023/10/16 03:32:28;;;;;;;5.53;2.47;;;18.30;94.00;;;;;;4592713;19;20008;-71
2023/10/16 03:34:04;;;;;;;4.53;1.90;;;18.30;94.00;;;;;;4592771;19;20032;-71
2023/10/16 03:35:41;;;;;;;3.78;1.90;;;18.30;94.00;;;;;;4590969;19;20002;-71
2023/10/16 03:37:15;;;;;;;4.97;1.75;;;18.30;94.00;;;;;;4591324;19;20007;-71
2023/10/16 03:38:57;;;;;;;4.50;1.80;;;18.30;94.00;;;;;;4592483;19;20322;-71
2023/10/16 03:40:31;;;;;;;4.35;1.50;;;18.30;94.00;;;;;;4592430;19;20006;-71
2023/10/16 03:42:09;;;;;;;3.92;1.40;;;18.30;94.10;;;;;;4592354;19;20005;-71
2023/10/16 03:44:14;;;;;;;4.10;1.35;;;18.30;94.00;;;;;;4592299;19;20014;-71
2023/10/16 03:45:49;;;;;;;2.42;1.40;;;18.30;94.10;;;;;;4591811;19;20014;-70
2023/10/16 03:47:27;;;;;;;4.85;2.17;;;18.30;94.10;;;;;;4591043;19;20013;-70
2023/10/16 03:49:03;;;;;;;6.20;2.42;;;18.40;94.10;;;;;;4592707;19;20082;-70
2023/10/16 03:50:42;;;;;;;3.88;1.90;;;18.50;94.20;;;;;;4592184;19;20293;-71
2023/10/16 03:52:22;;;;;;;5.85;2.33;;;18.50;94.20;;;;;;4591156;19;20007;-71
2023/10/16 03:53:57;;;;;;;11.45;6.05;;;18.70;94.10;;;;;;4591874;19;20021;-71
2023/10/16 03:55:32;;;;;;;15.25;9.10;;;18.70;94.10;;;;;;4592121;19;20027;-71
2023/10/16 03:57:13;;;;;;;17.27;9.38;;;18.70;94.00;;;;;;4590087;19;20014;-71
2023/10/16 03:58:53;;;;;;;13.55;7.40;;;18.80;94.10;;;;;;4592128;19;20027;-71
2023/10/16 04:01:11;;;;;;;11.55;6.63;;;18.80;94.10;;;;;;4592118;19;20011;-71
2023/10/16 04:02:31;;;;;;;6.55;3.50;;;18.90;94.10;;;;;;4591126;19;20021;-71
2023/10/16 04:04:12;;;;;;;4.38;2.15;;;18.90;94.10;;;;;;4592079;19;20002;-71
2023/10/16 04:05:47;;;;;;;4.03;1.45;;;18.90;94.10;;;;;;4590469;19;20425;-71
2023/10/16 04:07:22;;;;;;;3.38;1.50;;;18.90;94.10;;;;;;4591053;19;20409;-71
2023/10/16 04:08:59;;;;;;;4.50;2.80;;;19.00;94.00;;;;;;4590673;19;20007;-71
2023/10/16 04:10:34;;;;;;;6.10;3.25;;;19.00;94.00;;;;;;4591880;19;20444;-72
2023/10/16 04:12:17;;;;;;;7.93;2.97;;;19.00;94.00;;;;;;4590500;19;20070;-72
2023/10/16 04:13:54;;;;;;;7.38;3.33;;;19.00;93.90;;;;;;4591711;19;20326;-72
2023/10/16 04:17:24;;;;;;;9.98;5.82;;;19.10;93.90;;;;;;4590697;19;20011;-71
2023/10/16 04:20:55;;;;;;;8.90;4.50;;;19.00;93.80;;;;;;4591496;19;20022;-72
2023/10/16 04:22:44;;;;;;;7.00;3.53;;;19.00;94.20;;;;;;4591656;19;20011;-71
2023/10/16 04:28:09;;;;;;;6.35;4.00;;;18.90;94.20;;;;;;4591632;19;20305;-72
2023/10/16 04:29:49;;;;;;;7.28;3.47;;;18.90;94.30;;;;;;4591616;19;20073;-71
2023/10/16 04:33:48;;;;;;;;;;;18.90;94.20;;;;;;4592394;19;20006;-72
2023/10/16 04:35:59;;;;;;;7.25;3.20;;;18.90;94.40;;;;;;4591497;19;20210;-72
2023/10/16 04:40:27;;;;;;;5.45;2.33;;;18.90;94.40;;;;;;4591373;19;20013;-72
2023/10/16 04:46:55;;;;;;;3.63;1.92;;;18.90;94.40;;;;;;4588404;19;20017;-72
2023/10/16 04:48:48;;;;;;;5.60;2.83;;;18.90;94.30;;;;;;4591009;19;20006;-72
2023/10/16 04:52:14;;;;;;;4.45;2.30;;;18.90;94.30;;;;;;4593530;19;20003;-72
2023/10/16 04:57:47;;;;;;;6.97;3.50;;;18.90;94.20;;;;;;4592139;19;20015;-72
2023/10/16 04:59:37;;;;;;;7.10;2.97;;;18.80;94.10;;;;;;4593692;19;20030;-72
2023/10/16 05:02:52;;;;;;;5.22;2.53;;;18.80;94.10;;;;;;4593155;19;20068;-72
2023/10/16 05:08:30;;;;;;;5.43;2.35;;;18.70;94.00;;;;;;4593469;19;20013;-72
2023/10/16 05:15:51;;;;;;;4.72;2.20;;;18.70;93.90;;;;;;4593008;19;20444;-72
2023/10/16 05:21:51;;;;;;;5.25;2.05;;;18.70;93.90;;;;;;4595400;19;19918;-71
2023/10/16 06:15:37;;;;;;;4.70;2.25;;;19.40;92.70;;;;;;4614125;19;20341;-73
2023/10/16 06:17:17;;;;;;;4.53;1.20;;;19.40;92.80;;;;;;4613224;19;20006;-73
2023/10/16 06:18:53;;;;;;;2.67;1.00;;;19.30;92.60;;;;;;4614405;19;20025;-73
2023/10/16 06:20:30;;;;;;;3.15;1.10;;;19.40;92.70;;;;;;4613883;19;20003;-73
2023/10/16 06:22:09;;;;;;;2.90;1.08;;;19.30;92.60;;;;;;4613472;19;20007;-73
2023/10/16 06:23:49;;;;;;;3.92;1.70;;;19.30;92.50;;;;;;4614102;19;20003;-74
2023/10/16 06:25:28;;;;;;;5.03;1.30;;;19.20;92.70;;;;;;4612780;19;20477;-73
2023/10/16 06:27:12;;;;;;;3.20;1.38;;;19.20;92.60;;;;;;4611751;19;20074;-73
2023/10/16 06:28:52;;;;;;;4.18;1.25;;;19.10;92.70;;;;;;4612853;19;20010;-73
2023/10/16 06:30:27;;;;;;;5.60;1.40;;;19.10;92.70;;;;;;4613616;19;20065;-73
2023/10/16 06:32:06;;;;;;;3.92;1.52;;;19.10;92.70;;;;;;4613790;19;20073;-73
2023/10/16 06:33:45;;;;;;;1.92;0.80;;;19.10;92.80;;;;;;4612689;19;20420;-73
2023/10/16 06:35:19;;;;;;;4.25;1.40;;;19.10;92.80;;;;;;4613361;19;20011;-74
2023/10/16 06:36:55;;;;;;;4.90;1.70;;;19.10;92.80;;;;;;4613330;19;20321;-73
2023/10/16 06:38:31;;;;;;;6.50;1.70;;;19.10;93.00;;;;;;4613729;19;20017;-73
2023/10/16 06:40:15;;;;;;;5.05;1.50;;;19.10;92.90;;;;;;4613661;19;20003;-73
2023/10/16 06:41:55;;;;;;;6.22;1.48;;;19.10;92.80;;;;;;4612045;19;20006;-73
2023/10/16 06:43:32;;;;;;;3.47;1.83;;;19.00;92.90;;;;;;4613281;19;20029;-73
2023/10/16 06:45:07;;;;;;;2.97;1.20;;;19.00;93.00;;;;;;4613653;19;20002;-73
2023/10/16 06:46:41;;;;;;;5.00;2.25;;;19.10;93.00;;;;;;4612875;19;20473;-73
2023/10/16 06:48:17;;;;;;;6.30;1.65;;;19.10;93.00;;;;;;4612649;19;19998;-73
2023/10/16 06:50:35;;;;;;;3.75;1.42;;;19.10;92.80;;;;;;4601719;19;20069;-73
2023/10/16 06:53:11;;;;;;;4.80;1.50;;;19.20;93.20;;;;;;4610379;19;20017;-73
2023/10/16 06:55:34;;;;;;;3.47;1.10;;;19.20;92.90;;;;;;4612352;19;20086;-73
2023/10/16 06:57:33;;;;;;;5.15;1.88;;;19.30;93.00;;;;;;4608616;19;20056;-73
2023/10/16 06:59:16;;;;;;;5.13;1.77;;;19.30;92.90;;;;;;4613050;19;20002;-74
2023/10/16 07:00:55;;;;;;;3.45;1.33;;;19.30;92.80;;;;;;4613152;19;20002;-73
2023/10/16 07:02:29;;;;;;;3.95;1.48;;;19.20;93.00;;;;;;4611741;19;20025;-73
2023/10/16 07:04:05;;;;;;;4.50;1.58;;;19.20;93.00;;;;;;4613216;19;20006;-72
2023/10/16 07:05:44;;;;;;;6.10;2.35;;;19.20;92.90;;;;;;4613027;19;20023;-73
2023/10/16 07:07:22;;;;;;;5.28;2.42;;;19.20;92.80;;;;;;4612321;19;20033;-73
2023/10/16 07:09:07;;;;;;;4.45;1.73;;;19.10;92.80;;;;;;4611743;19;20006;-74
2023/10/16 07:10:41;;;;;;;5.28;1.38;;;19.10;93.00;;;;;;4612853;19;19998;-73
2023/10/16 07:12:18;;;;;;;2.92;1.30;;;19.10;92.90;;;;;;4611737;19;20015;-74
2023/10/16 07:13:54;;;;;;;3.17;1.52;;;19.00;92.90;;;;;;4601822;19;20430;-74
2023/10/16 07:15:34;;;;;;;4.93;1.27;;;19.10;93.00;;;;;;4595166;19;20001;-76
2023/10/16 07:17:13;;;;;;;4.15;1.35;;;19.00;92.90;;;;;;4593174;19;20094;-74
2023/10/16 07:18:54;;;;;;;4.20;1.85;;;19.00;92.80;;;;;;4594144;19;20007;-74
2023/10/16 07:20:30;;;;;;;3.78;1.30;;;18.90;92.80;;;;;;4594992;19;20472;-74
2023/10/16 07:22:10;;;;;;;3.28;1.20;;;18.90;92.60;;;;;;4593222;19;20025;-73
2023/10/16 07:23:45;;;;;;;5.10;1.30;;;19.00;92.70;;;;;;4594993;19;20066;-75
2023/10/16 07:25:37;;;;;;;10.45;1.70;;;18.90;92.60;;;;;;4593838;19;20010;-74
2023/10/16 07:27:13;;;;;;;3.03;1.42;;;18.90;92.90;;;;;;4593918;19;20014;-73
2023/10/16 07:28:49;;;;;;;1.98;0.95;;;18.90;92.80;;;;;;4593911;19;20290;-74
2023/10/16 07:30:23;;;;;;;5.25;1.70;;;18.90;92.80;;;;;;4594222;19;20350;-74
2023/10/16 07:31:58;;;;;;;4.43;1.10;;;18.80;92.80;;;;;;4594142;19;20002;-74
2023/10/16 07:33:41;;;;;;;3.20;1.25;;;18.80;92.70;;;;;;4592886;19;20014;-74
2023/10/16 07:35:17;;;;;;;5.00;1.33;;;18.70;92.60;;;;;;4594001;19;20283;-74
2023/10/16 07:36:55;;;;;;;4.07;1.40;;;18.80;92.80;;;;;;4592267;19;20006;-74
2023/10/16 07:38:32;;;;;;;5.03;1.60;;;18.70;92.80;;;;;;4594148;19;20006;-73
2023/10/16 07:40:07;;;;;;;4.22;1.55;;;18.70;92.70;;;;;;4594190;19;20002;-74
2023/10/16 07:41:43;;;;;;;3.63;1.35;;;18.70;92.90;;;;;;4593675;19;20002;-75
2023/10/16 07:43:32;;;;;;;5.35;1.58;;;18.80;92.90;;;;;;4593910;19;20437;-74
2023/10/16 07:45:08;;;;;;;3.83;1.38;;;18.70;92.90;;;;;;4594061;19;20066;-73
2023/10/16 07:46:44;;;;;;;4.65;1.30;;;18.70;92.60;;;;;;4592093;19;20001;-73
2023/10/16 07:48:27;;;;;;;3.92;1.67;;;18.70;92.90;;;;;;4593763;19;20021;-72
2023/10/16 07:50:04;;;;;;;3.85;1.23;;;18.70;92.90;;;;;;4592440;19;20010;-72
2023/10/16 07:51:52;;;;;;;3.10;1.15;;;18.70;92.80;;;;;;4575504;19;20074;-73
2023/10/16 07:53:56;;;;;;;5.30;1.55;;;18.70;92.70;;;;;;4590559;19;20011;-74
2023/10/16 07:58:48;;;;;;;5.30;1.55;;;18.60;92.60;;;;;;4592561;19;20085;-73
2023/10/16 08:03:19;;;;;;;4.50;1.52;;;18.70;92.90;;;;;;4591071;19;20074;-73
2023/10/16 08:05:16;;;;;;;4.72;1.80;;;18.70;92.80;;;;;;4592089;19;20023;-74
2023/10/16 08:07:06;;;;;;;5.10;1.80;;;18.70;92.70;;;;;;4593413;19;20006;-73
2023/10/16 08:08:42;;;;;;;4.57;1.95;;;18.60;92.70;;;;;;4593875;19;20011;-73
2023/10/16 08:12:37;;;;;;;4.07;1.45;;;18.60;92.80;;;;;;4591649;19;20041;-73
2023/10/16 08:14:13;;;;;;;5.32;2.00;;;18.60;92.70;;;;;;4591709;19;20027;-74
2023/10/16 08:15:52;;;;;;;4.07;1.40;;;18.60;92.90;;;;;;4591686;19;19999;-73
2023/10/16 08:17:28;;;;;;;4.75;1.77;;;18.60;92.80;;;;;;4590412;19;20035;-73
2023/10/16 08:19:04;;;;;;;4.68;1.38;;;18.50;92.70;;;;;;4591780;19;20066;-73
2023/10/16 08:21:00;;;;;;;4.82;1.48;;;18.40;92.50;;;;;;4591644;19;20049;-73
2023/10/16 08:22:36;;;;;;;4.32;1.58;;;18.40;92.50;;;;;;4590562;19;20003;-74
2023/10/16 08:24:21;;;;;;;4.53;1.65;;;18.40;92.60;;;;;;4591383;19;20090;-73
2023/10/16 08:26:00;;;;;;;3.03;1.30;;;18.40;92.70;;;;;;4589158;19;20131;-73
2023/10/16 08:27:43;;;;;;;3.80;1.10;;;18.40;92.80;;;;;;4590252;19;20015;-73
2023/10/16 08:29:20;;;;;;;5.18;1.50;;;18.40;92.60;;;;;;4591292;19;20010;-73
2023/10/16 08:30:55;;;;;;;4.15;1.40;;;18.40;92.70;;;;;;4591449;19;20003;-73
2023/10/16 08:32:53;;;;;;;3.83;1.33;;;18.40;92.80;;;;;;4591419;19;20014;-73
2023/10/16 08:34:28;;;;;;;3.92;1.35;;;18.40;92.70;;;;;;4591299;19;20010;-73
2023/10/16 08:36:05;;;;;;;4.13;1.50;;;18.40;92.50;;;;;;4591146;19;20020;-73
2023/10/16 08:37:41;;;;;;;5.15;2.20;;;18.40;92.70;;;;;;4590283;19;20011;-72
2023/10/16 08:39:15;;;;;;;3.40;1.45;;;18.40;92.60;;;;;;4591358;19;20426;-72
2023/10/16 08:41:30;;;;;;;4.32;1.67;;;18.50;92.50;;;;;;4591307;19;20310;-72
2023/10/16 08:43:08;;;;;;;5.93;2.30;;;18.40;92.40;;;;;;4589586;19;20021;-71
2023/10/16 08:44:44;;;;;;;5.22;2.08;;;18.40;92.40;;;;;;4591081;19;20112;-73
2023/10/16 08:46:44;;;;;;;5.57;1.42;;;18.30;92.30;;;;;;4578937;19;20074;-73
2023/10/16 08:48:40;;;;;;;7.38;2.15;;;18.30;92.40;;;;;;4590910;19;20026;-74
2023/10/16 08:50:52;;;;;;;6.10;2.17;;;18.30;92.40;;;;;;4590587;19;20037;-75
2023/10/16 08:52:58;;;;;;;4.18;1.23;;;18.30;92.40;;;;;;4590850;19;20010;-72
2023/10/16 08:55:14;;;;;;;4.82;1.67;;;18.30;92.20;;;;;;4591584;19;20034;-71
2023/10/16 08:56:59;;;;;;;4.95;1.63;;;18.30;92.30;;;;;;4591654;19;20414;-74
2023/10/16 08:58:58;;;;;;;3.90;1.20;;;18.40;92.00;;;;;;4591987;19;20013;-74
2023/10/16 09:00:46;;;;;;;5.22;1.95;;;18.30;92.10;;;;;;4591780;19;20007;-74
2023/10/16 09:02:38;;;;;;;3.58;1.65;;;18.40;92.20;;;;;;4594371;19;20438;-73
2023/10/16 09:04:27;;;;;;;3.80;1.95;;;18.40;92.40;;;;;;4591542;19;20011;-72
2023/10/16 09:06:04;;;;;;;4.93;1.42;;;18.40;92.30;;;;;;4591381;19;20298;-73
2023/10/16 09:07:39;;;;;;;5.03;1.73;;;18.50;92.40;;;;;;4591635;19;20006;-73
2023/10/16 09:09:13;;;;;;;5.45;1.55;;;18.50;92.10;;;;;;4591428;19;20369;-73
2023/10/16 09:10:49;;;;;;;4.75;1.65;;;18.50;92.10;;;;;;4592820;19;20449;-73
2023/10/16 09:12:28;;;;;;;4.32;1.77;;;18.50;92.20;;;;;;4592999;19;20010;-72
2023/10/16 09:14:07;;;;;;;5.50;1.50;;;18.50;92.20;;;;;;4592710;19;20055;-73
2023/10/16 09:15:45;;;;;;;4.97;1.85;;;18.50;92.30;;;;;;4592833;19;20011;-72
2023/10/16 09:17:25;;;;;;;5.57;2.25;;;18.60;92.00;;;;;;4590655;19;20070;-73
2023/10/16 09:19:01;;;;;;;7.53;2.75;;;18.50;92.10;;;;;;4592693;19;20007;-73
2023/10/16 09:20:41;;;;;;;6.50;2.42;;;18.50;92.00;;;;;;4592713;19;20306;-73
2023/10/16 09:22:18;;;;;;;5.53;2.08;;;18.50;92.00;;;;;;4590760;19;20011;-74
2023/10/16 09:23:53;;;;;;;8.48;3.17;;;18.40;92.00;;;;;;4591319;19;20011;-73
2023/10/16 09:25:31;;;;;;;5.32;2.35;;;18.50;92.40;;;;;;4591250;19;20454;-73
2023/10/16 09:27:30;;;;;;;4.07;1.50;;;18.50;92.50;;;;;;4590744;19;20017;-73
2023/10/16 09:29:20;;;;;;;4.68;1.85;;;18.50;92.30;;;;;;4591043;19;20070;-75
2023/10/16 09:33:39;;;;;;;4.80;1.52;;;18.60;92.10;;;;;;4590730;19;19990;-73
2023/10/16 09:35:15;;;;;;;6.07;2.38;;;18.60;92.00;;;;;;4592453;19;20082;-74
2023/10/16 09:38:51;;;;;;;5.95;1.50;;;18.60;91.90;;;;;;4592490;19;19999;-74
2023/10/16 09:40:37;;;;;;;5.35;2.17;;;18.50;91.90;;;;;;4591327;19;20020;-73
2023/10/16 09:42:14;;;;;;;5.63;1.45;;;18.50;91.90;;;;;;4590981;19;20073;-73
2023/10/16 09:43:56;;;;;;;4.90;1.60;;;18.50;91.80;;;;;;4592411;19;20002;-72
2023/10/16 09:45:37;;;;;;;5.05;1.80;;;18.50;91.80;;;;;;4591174;19;20445;-71
2023/10/16 09:48:19;;;;;;;4.45;1.83;;;18.50;92.00;;;;;;4591421;19;20030;-73
2023/10/16 09:49:28;;;;;;;6.82;2.55;;;18.50;92.00;;;;;;4591188;19;20006;-73
2023/10/16 09:51:03;;;;;;;4.07;1.55;;;18.50;91.90;;;;;;4592484;19;20007;-73
2023/10/16 09:52:39;;;;;;;4.25;1.75;;;18.60;92.00;;;;;;4591108;19;20434;-74
2023/10/16 09:54:15;;;;;;;6.60;1.70;;;18.60;92.10;;;;;;4592076;19;20013;-74
2023/10/16 09:55:52;;;;;;;6.18;1.83;;;18.60;92.10;;;;;;4592312;19;20414;-73
2023/10/16 09:57:30;;;;;;;7.50;2.58;;;18.60;92.00;;;;;;4591227;19;20011;-72
2023/10/16 09:59:38;;;;;;;4.70;2.20;;;18.60;92.10;;;;;;4592370;19;20446;-72
2023/10/16 10:01:23;;;;;;;6.25;1.88;;;18.70;92.00;;;;;;4589546;19;20040;-73
2023/10/16 10:03:06;;;;;;;6.63;1.90;;;18.70;91.90;;;;;;4588388;19;20018;-73
2023/10/16 10:04:45;;;;;;;7.65;2.13;;;18.70;92.00;;;;;;4589674;19;20323;-73
2023/10/16 10:06:22;;;;;;;6.85;2.95;;;18.60;91.90;;;;;;4589607;19;20105;-73
2023/10/16 10:07:59;;;;;;;7.93;2.45;;;18.60;91.80;;;;;;4589946;19;20013;-72
2023/10/16 10:09:42;;;;;;;4.57;1.65;;;18.70;91.80;;;;;;4589876;19;20007;-72
2023/10/16 10:11:17;;;;;;;5.68;1.77;;;18.60;91.70;;;;;;4590001;19;20010;-71
2023/10/16 10:12:56;;;;;;;4.43;1.77;;;18.60;91.70;;;;;;4589753;19;20002;-72
2023/10/16 10:14:39;;;;;;;8.35;2.05;;;18.70;91.80;;;;;;4589840;19;20327;-72
2023/10/16 10:16:19;;;;;;;6.03;2.08;;;18.60;91.90;;;;;;4589641;19;20019;-72
2023/10/16 10:17:55;;;;;;;6.20;1.60;;;18.70;92.00;;;;;;4589833;19;20007;-73
2023/10/16 10:19:31;;;;;;;7.43;2.15;;;18.60;92.00;;;;;;4589416;19;20446;-73
2023/10/16 10:21:12;;;;;;;5.63;2.20;;;18.60;92.00;;;;;;4589339;19;20019;-73
2023/10/16 10:22:49;;;;;;;5.85;2.58;;;18.60;91.90;;;;;;4588629;19;20006;-73
2023/10/16 10:24:26;;;;;;;4.82;1.90;;;18.60;91.70;;;;;;4589465;19;20027;-73
2023/10/16 10:26:07;;;;;;;6.68;2.25;;;18.60;91.80;;;;;;4589520;19;20006;-73
2023/10/16 10:27:42;;;;;;;5.88;2.10;;;18.60;92.00;;;;;;4588304;19;20034;-73
2023/10/16 10:29:20;;;;;;;6.95;2.13;;;18.60;91.90;;;;;;4589185;19;20013;-73
2023/10/16 10:31:02;;;;;;;3.97;1.40;;;18.60;91.90;;;;;;4589144;19;20076;-73
2023/10/16 10:32:38;;;;;;;6.40;2.17;;;18.60;91.80;;;;;;4588946;19;20018;-73
2023/10/16 10:34:23;;;;;;;6.53;2.10;;;18.60;91.80;;;;;;4589071;19;20217;-73
2023/10/16 10:36:28;;;;;;;4.80;1.58;;;18.60;92.10;;;;;;4589438;19;20332;-73
2023/10/16 10:38:23;;;;;;;5.00;1.70;;;18.60;92.00;;;;;;4589492;19;20006;-73
2023/10/16 10:40:43;;;;;;;4.53;2.00;;;18.60;92.20;;;;;;4590144;19;20037;-74
2023/10/16 10:42:16;;;;;;;4.93;1.63;;;18.60;92.20;;;;;;4590233;19;20007;-73
2023/10/16 10:44:08;;;;;;;4.75;1.60;;;18.60;92.10;;;;;;4590151;19;20008;-74
2023/10/16 10:45:45;;;;;;;5.95;1.75;;;18.60;92.10;;;;;;4591377;19;20446;-73
2023/10/16 10:47:30;;;;;;;4.20;1.50;;;18.60;92.00;;;;;;4589195;19;20002;-73